sensor_id;sensor_type;location;lat;lon;timestamp;pressure;altitude;pressure_sealevel;temperature;humidity
141;BME280;65;48.778;9.160;2023-05-07T00:00:05;98401.00;;;14.41;98.83
141;BME280;65;48.778;9.160;2023-05-07T00:02:53;98411.38;;;14.33;99.84
141;BME280;65;48.778;9.160;2023-05-07T00:05:39;98412.06;;;14.23;100.00
141;BME280;65;48.778;9.160;2023-05-07T00:08:25;98410.81;;;14.16;100.00
141;BME280;65;48.778;9.160;2023-05-07T00:11:11;98403.28;;;14.10;100.00
141;BME280;65;48.778;9.160;2023-05-07T00:13:57;98413.41;;;14.05;100.00
141;BME280;65;48.778;9.160;2023-05-07T00:16:42;98404.72;;;14.03;100.00
141;BME280;65;48.778;9.160;2023-05-07T00:19:28;98409.53;;;13.98;100.00
141;BME280;65;48.778;9.160;2023-05-07T00:22:14;98402.41;;;13.99;100.00
141;BME280;65;48.778;9.160;2023-05-07T00:25:00;98406.75;;;14.00;100.00
141;BME280;65;48.778;9.160;2023-05-07T00:27:45;98403.75;;;14.04;100.00
141;BME280;65;48.778;9.160;2023-05-07T00:30:31;98404.81;;;14.02;100.00
141;BME280;65;48.778;9.160;2023-05-07T00:33:17;98397.09;;;13.99;100.00
141;BME280;65;48.778;9.160;2023-05-07T00:36:03;98400.06;;;13.94;100.00
141;BME280;65;48.778;9.160;2023-05-07T00:38:49;98398.50;;;13.91;100.00
141;BME280;65;48.778;9.160;2023-05-07T00:41:35;98406.59;;;13.90;100.00
141;BME280;65;48.778;9.160;2023-05-07T00:44:20;98399.56;;;13.89;100.00
141;BME280;65;48.778;9.160;2023-05-07T00:47:06;98390.84;;;13.87;100.00
141;BME280;65;48.778;9.160;2023-05-07T00:50:08;98387.66;;;13.82;100.00
141;BME280;65;48.778;9.160;2023-05-07T00:52:56;98385.13;;;13.80;100.00
141;BME280;65;48.778;9.160;2023-05-07T00:55:42;98384.50;;;13.77;100.00
141;BME280;65;48.778;9.160;2023-05-07T00:58:27;98376.75;;;13.74;100.00
141;BME280;65;48.778;9.160;2023-05-07T01:01:13;98387.03;;;13.78;100.00
141;BME280;65;48.778;9.160;2023-05-07T01:04:01;98379.19;;;13.77;100.00
141;BME280;65;48.778;9.160;2023-05-07T01:07:09;98372.19;;;13.76;100.00
141;BME280;65;48.778;9.160;2023-05-07T01:09:56;98377.72;;;13.73;100.00
141;BME280;65;48.778;9.160;2023-05-07T01:12:43;98379.41;;;13.74;100.00
141;BME280;65;48.778;9.160;2023-05-07T01:15:29;98381.09;;;13.75;100.00
141;BME280;65;48.778;9.160;2023-05-07T01:18:15;98381.34;;;13.72;100.00
141;BME280;65;48.778;9.160;2023-05-07T01:21:01;98387.66;;;13.82;100.00
141;BME280;65;48.778;9.160;2023-05-07T01:23:49;98384.28;;;13.80;100.00
141;BME280;65;48.778;9.160;2023-05-07T01:26:35;98383.88;;;13.73;100.00
141;BME280;65;48.778;9.160;2023-05-07T01:29:20;98385.16;;;13.68;100.00
141;BME280;65;48.778;9.160;2023-05-07T01:32:07;98382.13;;;13.61;100.00
141;BME280;65;48.778;9.160;2023-05-07T01:34:54;98371.94;;;13.55;100.00
141;BME280;65;48.778;9.160;2023-05-07T01:37:41;98379.50;;;13.48;100.00
141;BME280;65;48.778;9.160;2023-05-07T01:40:27;98378.03;;;13.44;100.00
141;BME280;65;48.778;9.160;2023-05-07T01:43:13;98375.69;;;13.40;100.00
141;BME280;65;48.778;9.160;2023-05-07T01:45:59;98383.78;;;13.38;100.00
141;BME280;65;48.778;9.160;2023-05-07T01:48:46;98371.69;;;13.34;100.00
141;BME280;65;48.778;9.160;2023-05-07T01:51:32;98374.56;;;13.31;100.00
141;BME280;65;48.778;9.160;2023-05-07T01:54:26;98372.84;;;13.30;100.00
141;BME280;65;48.778;9.160;2023-05-07T01:57:14;98372.31;;;13.25;100.00
141;BME280;65;48.778;9.160;2023-05-07T02:00:00;98371.69;;;13.21;100.00
141;BME280;65;48.778;9.160;2023-05-07T02:02:46;98378.06;;;13.19;100.00
141;BME280;65;48.778;9.160;2023-05-07T02:05:32;98377.09;;;13.20;100.00
141;BME280;65;48.778;9.160;2023-05-07T02:08:17;98377.09;;;13.20;100.00
141;BME280;65;48.778;9.160;2023-05-07T02:11:06;98376.25;;;13.19;100.00
141;BME280;65;48.778;9.160;2023-05-07T02:13:52;98379.97;;;13.17;100.00
141;BME280;65;48.778;9.160;2023-05-07T02:16:38;98377.31;;;13.17;100.00
141;BME280;65;48.778;9.160;2023-05-07T02:19:24;98378.25;;;13.16;100.00
141;BME280;65;48.778;9.160;2023-05-07T02:22:10;98385.69;;;13.23;100.00
141;BME280;65;48.778;9.160;2023-05-07T02:24:55;98380.59;;;13.33;100.00
141;BME280;65;48.778;9.160;2023-05-07T02:27:41;98387.38;;;13.37;100.00
141;BME280;65;48.778;9.160;2023-05-07T02:30:27;98381.00;;;13.40;100.00
141;BME280;65;48.778;9.160;2023-05-07T02:33:12;98382.72;;;13.41;100.00
141;BME280;65;48.778;9.160;2023-05-07T02:36:09;98376.78;;;13.37;100.00
141;BME280;65;48.778;9.160;2023-05-07T02:38:55;98380.81;;;13.30;100.00
141;BME280;65;48.778;9.160;2023-05-07T02:41:50;98376.13;;;13.21;100.00
141;BME280;65;48.778;9.160;2023-05-07T02:44:36;98385.56;;;13.12;100.00
141;BME280;65;48.778;9.160;2023-05-07T02:47:22;98378.38;;;13.02;100.00
141;BME280;65;48.778;9.160;2023-05-07T02:50:08;98377.09;;;12.94;100.00
141;BME280;65;48.778;9.160;2023-05-07T02:52:53;98385.69;;;12.85;100.00
141;BME280;65;48.778;9.160;2023-05-07T02:55:39;98386.00;;;12.81;100.00
141;BME280;65;48.778;9.160;2023-05-07T02:58:26;98375.84;;;12.75;100.00
141;BME280;65;48.778;9.160;2023-05-07T03:01:12;98372.94;;;12.65;100.00
141;BME280;65;48.778;9.160;2023-05-07T03:03:59;98372.41;;;12.60;100.00
141;BME280;65;48.778;9.160;2023-05-07T03:06:44;98371.13;;;12.53;100.00
141;BME280;65;48.778;9.160;2023-05-07T03:09:30;98363.59;;;12.47;100.00
141;BME280;65;48.778;9.160;2023-05-07T03:12:16;98360.41;;;12.42;100.00
141;BME280;65;48.778;9.160;2023-05-07T03:15:02;98353.41;;;12.41;100.00
141;BME280;65;48.778;9.160;2023-05-07T03:17:48;98338.56;;;12.38;100.00
141;BME280;65;48.778;9.160;2023-05-07T03:20:34;98338.78;;;12.35;100.00
141;BME280;65;48.778;9.160;2023-05-07T03:23:36;98353.19;;;12.31;100.00
141;BME280;65;48.778;9.160;2023-05-07T03:26:22;98352.53;;;12.27;100.00
141;BME280;65;48.778;9.160;2023-05-07T03:29:07;98367.69;;;12.25;100.00
141;BME280;65;48.778;9.160;2023-05-07T03:31:53;98360.16;;;12.19;100.00
141;BME280;65;48.778;9.160;2023-05-07T03:34:39;98362.91;;;12.18;100.00
141;BME280;65;48.778;9.160;2023-05-07T03:37:25;98357.91;;;12.13;100.00
141;BME280;65;48.778;9.160;2023-05-07T03:40:11;98369.44;;;12.12;100.00
141;BME280;65;48.778;9.160;2023-05-07T03:42:57;98364.34;;;12.09;100.00
141;BME280;65;48.778;9.160;2023-05-07T03:45:43;98360.75;;;12.10;100.00
141;BME280;65;48.778;9.160;2023-05-07T03:48:29;98367.00;;;12.09;100.00
141;BME280;65;48.778;9.160;2023-05-07T03:51:15;98377.50;;;12.11;100.00
141;BME280;65;48.778;9.160;2023-05-07T03:54:00;98369.53;;;12.11;100.00
141;BME280;65;48.778;9.160;2023-05-07T03:56:46;98379.19;;;12.12;100.00
141;BME280;65;48.778;9.160;2023-05-07T03:59:32;98370.28;;;12.13;100.00
141;BME280;65;48.778;9.160;2023-05-07T04:02:18;98372.88;;;12.14;100.00
141;BME280;65;48.778;9.160;2023-05-07T04:05:04;98367.66;;;12.13;100.00
141;BME280;65;48.778;9.160;2023-05-07T04:07:50;98376.66;;;12.10;100.00
141;BME280;65;48.778;9.160;2023-05-07T04:10:36;98383.00;;;12.08;100.00
141;BME280;65;48.778;9.160;2023-05-07T04:13:21;98381.94;;;12.10;100.00
141;BME280;65;48.778;9.160;2023-05-07T04:16:07;98376.44;;;12.13;100.00
141;BME280;65;48.778;9.160;2023-05-07T04:18:53;98379.66;;;12.18;100.00
141;BME280;65;48.778;9.160;2023-05-07T04:21:39;98383.06;;;12.20;100.00
141;BME280;65;48.778;9.160;2023-05-07T04:24:25;98390.69;;;12.25;100.00
141;BME280;65;48.778;9.160;2023-05-07T04:27:11;98393.78;;;12.31;100.00
141;BME280;65;48.778;9.160;2023-05-07T04:29:57;98392.41;;;12.39;100.00
141;BME280;65;48.778;9.160;2023-05-07T04:32:43;98397.09;;;12.48;100.00
141;BME280;65;48.778;9.160;2023-05-07T04:35:29;98397.75;;;12.51;100.00
141;BME280;65;48.778;9.160;2023-05-07T04:38:15;98394.66;;;12.57;100.00
141;BME280;65;48.778;9.160;2023-05-07T04:41:06;98390.34;;;12.69;100.00
141;BME280;65;48.778;9.160;2023-05-07T04:43:51;98397.25;;;12.84;100.00
141;BME280;65;48.778;9.160;2023-05-07T04:46:37;98391.53;;;12.90;100.00
141;BME280;65;48.778;9.160;2023-05-07T04:49:23;98395.13;;;12.89;100.00
141;BME280;65;48.778;9.160;2023-05-07T04:52:09;98394.41;;;12.87;100.00
141;BME280;65;48.778;9.160;2023-05-07T04:54:54;98406.69;;;12.88;100.00
141;BME280;65;48.778;9.160;2023-05-07T04:57:41;98399.91;;;12.84;100.00
141;BME280;65;48.778;9.160;2023-05-07T05:00:27;98394.81;;;12.81;100.00
141;BME280;65;48.778;9.160;2023-05-07T05:03:12;98407.66;;;12.75;100.00
141;BME280;65;48.778;9.160;2023-05-07T05:05:58;98410.31;;;12.75;100.00
141;BME280;65;48.778;9.160;2023-05-07T05:08:45;98407.44;;;12.78;100.00
141;BME280;65;48.778;9.160;2023-05-07T05:11:31;98412.66;;;12.79;100.00
141;BME280;65;48.778;9.160;2023-05-07T05:14:17;98423.91;;;12.83;100.00
141;BME280;65;48.778;9.160;2023-05-07T05:17:03;98422.72;;;12.87;100.00
141;BME280;65;48.778;9.160;2023-05-07T05:19:48;98418.69;;;12.94;100.00
141;BME280;65;48.778;9.160;2023-05-07T05:22:34;98416.78;;;13.09;100.00
141;BME280;65;48.778;9.160;2023-05-07T05:25:20;98417.97;;;13.30;100.00
141;BME280;65;48.778;9.160;2023-05-07T05:28:05;98424.50;;;13.63;100.00
141;BME280;65;48.778;9.160;2023-05-07T05:30:51;98427.16;;;13.99;100.00
141;BME280;65;48.778;9.160;2023-05-07T05:33:37;98427.69;;;14.39;100.00
141;BME280;65;48.778;9.160;2023-05-07T05:36:23;98433.22;;;14.84;100.00
141;BME280;65;48.778;9.160;2023-05-07T05:39:08;98438.63;;;15.17;100.00
141;BME280;65;48.778;9.160;2023-05-07T05:41:54;98425.66;;;15.46;100.00
141;BME280;65;48.778;9.160;2023-05-07T05:44:40;98423.97;;;15.57;96.84
141;BME280;65;48.778;9.160;2023-05-07T05:47:26;98422.75;;;15.49;94.69
141;BME280;65;48.778;9.160;2023-05-07T05:50:11;98427.25;;;15.49;96.45
141;BME280;65;48.778;9.160;2023-05-07T05:52:57;98423.00;;;15.46;94.96
141;BME280;65;48.778;9.160;2023-05-07T05:55:43;98420.34;;;15.35;96.98
141;BME280;65;48.778;9.160;2023-05-07T05:58:29;98434.84;;;15.09;97.35
141;BME280;65;48.778;9.160;2023-05-07T06:01:15;98427.13;;;15.28;97.51
141;BME280;65;48.778;9.160;2023-05-07T06:04:00;98435.72;;;15.54;95.70
141;BME280;65;48.778;9.160;2023-05-07T06:06:46;98440.47;;;15.73;94.45
141;BME280;65;48.778;9.160;2023-05-07T06:09:32;98446.25;;;15.89;92.37
141;BME280;65;48.778;9.160;2023-05-07T06:12:18;98443.31;;;16.03;89.87
141;BME280;65;48.778;9.160;2023-05-07T06:15:05;98444.31;;;15.91;88.64
141;BME280;65;48.778;9.160;2023-05-07T06:17:51;98442.06;;;16.30;89.78
141;BME280;65;48.778;9.160;2023-05-07T06:20:36;98443.13;;;16.59;87.21
141;BME280;65;48.778;9.160;2023-05-07T06:23:22;98440.19;;;16.73;88.11
141;BME280;65;48.778;9.160;2023-05-07T06:26:08;98432.59;;;16.90;84.33
141;BME280;65;48.778;9.160;2023-05-07T06:28:53;98438.97;;;16.78;83.84
141;BME280;65;48.778;9.160;2023-05-07T06:31:39;98446.00;;;16.79;83.82
141;BME280;65;48.778;9.160;2023-05-07T06:34:25;98441.41;;;16.69;87.25
141;BME280;65;48.778;9.160;2023-05-07T06:37:11;98446.88;;;16.79;87.39
141;BME280;65;48.778;9.160;2023-05-07T06:39:56;98441.97;;;16.84;85.40
141;BME280;65;48.778;9.160;2023-05-07T06:42:42;98440.13;;;17.57;82.32
141;BME280;65;48.778;9.160;2023-05-07T06:45:28;98448.69;;;18.41;75.78
141;BME280;65;48.778;9.160;2023-05-07T06:48:13;98445.88;;;19.00;72.00
141;BME280;65;48.778;9.160;2023-05-07T06:50:59;98447.09;;;20.72;67.02
141;BME280;65;48.778;9.160;2023-05-07T06:53:45;98435.41;;;23.18;56.61
141;BME280;65;48.778;9.160;2023-05-07T06:56:31;98444.06;;;25.23;48.96
141;BME280;65;48.778;9.160;2023-05-07T06:59:17;98441.19;;;26.43;45.55
141;BME280;65;48.778;9.160;2023-05-07T07:02:03;98440.94;;;26.38;44.64
141;BME280;65;48.778;9.160;2023-05-07T07:04:48;98436.41;;;27.58;40.48
141;BME280;65;48.778;9.160;2023-05-07T07:07:34;98431.28;;;28.04;41.94
141;BME280;65;48.778;9.160;2023-05-07T07:10:20;98436.69;;;26.93;42.82
141;BME280;65;48.778;9.160;2023-05-07T07:13:06;98434.59;;;27.09;42.44
141;BME280;65;48.778;9.160;2023-05-07T07:15:52;98426.19;;;27.88;41.38
141;BME280;65;48.778;9.160;2023-05-07T07:18:38;98427.84;;;28.24;38.14
141;BME280;65;48.778;9.160;2023-05-07T07:21:24;98429.03;;;27.18;42.20
141;BME280;65;48.778;9.160;2023-05-07T07:24:10;98424.44;;;28.83;37.14
141;BME280;65;48.778;9.160;2023-05-07T07:26:56;98427.63;;;29.33;38.85
141;BME280;65;48.778;9.160;2023-05-07T07:29:42;98426.03;;;30.67;34.30
141;BME280;65;48.778;9.160;2023-05-07T07:32:28;98422.03;;;30.63;36.17
141;BME280;65;48.778;9.160;2023-05-07T07:35:14;98418.72;;;29.97;36.89
141;BME280;65;48.778;9.160;2023-05-07T07:37:59;98429.50;;;27.56;38.41
141;BME280;65;48.778;9.160;2023-05-07T07:40:47;98429.63;;;28.51;36.77
141;BME280;65;48.778;9.160;2023-05-07T07:43:33;98427.63;;;29.33;37.28
141;BME280;65;48.778;9.160;2023-05-07T07:46:18;98428.53;;;30.69;33.88
141;BME280;65;48.778;9.160;2023-05-07T07:49:04;98430.81;;;29.56;36.29
141;BME280;65;48.778;9.160;2023-05-07T07:51:50;98429.31;;;29.07;37.16
141;BME280;65;48.778;9.160;2023-05-07T07:54:36;98429.81;;;27.67;38.07
141;BME280;65;48.778;9.160;2023-05-07T07:57:22;98424.72;;;26.44;42.13
141;BME280;65;48.778;9.160;2023-05-07T08:00:08;98425.16;;;25.97;44.55
141;BME280;65;48.778;9.160;2023-05-07T08:02:54;98427.13;;;25.44;47.93
141;BME280;65;48.778;9.160;2023-05-07T08:05:40;98429.22;;;25.34;48.02
141;BME280;65;48.778;9.160;2023-05-07T08:08:26;98427.81;;;25.76;44.62
141;BME280;65;48.778;9.160;2023-05-07T08:11:11;98424.63;;;25.72;45.50
141;BME280;65;48.778;9.160;2023-05-07T08:13:57;98435.81;;;25.54;44.03
141;BME280;65;48.778;9.160;2023-05-07T08:16:43;98433.47;;;25.51;44.48
141;BME280;65;48.778;9.160;2023-05-07T08:19:29;98432.91;;;26.00;44.00
141;BME280;65;48.778;9.160;2023-05-07T08:22:14;98428.75;;;27.13;44.04
141;BME280;65;48.778;9.160;2023-05-07T08:25:00;98432.09;;;27.64;40.53
141;BME280;65;48.778;9.160;2023-05-07T08:27:46;98424.38;;;30.60;37.76
141;BME280;65;48.778;9.160;2023-05-07T08:30:32;98425.72;;;32.85;30.20
141;BME280;65;48.778;9.160;2023-05-07T08:33:17;98419.06;;;31.96;36.30
141;BME280;65;48.778;9.160;2023-05-07T08:36:04;98417.06;;;32.21;31.43
141;BME280;65;48.778;9.160;2023-05-07T08:38:49;98415.84;;;31.37;34.65
141;BME280;65;48.778;9.160;2023-05-07T08:41:35;98416.44;;;30.07;37.21
141;BME280;65;48.778;9.160;2023-05-07T08:44:22;98419.56;;;29.97;36.16
141;BME280;65;48.778;9.160;2023-05-07T08:47:08;98423.94;;;31.26;33.46
141;BME280;65;48.778;9.160;2023-05-07T08:49:54;98422.53;;;29.89;34.42
141;BME280;65;48.778;9.160;2023-05-07T08:52:40;98421.09;;;32.19;32.06
141;BME280;65;48.778;9.160;2023-05-07T08:55:28;98418.81;;;33.71;30.46
141;BME280;65;48.778;9.160;2023-05-07T08:58:14;98418.59;;;32.35;32.63
141;BME280;65;48.778;9.160;2023-05-07T09:01:03;98420.13;;;32.13;33.39
141;BME280;65;48.778;9.160;2023-05-07T09:03:53;98419.66;;;29.31;35.45
141;BME280;65;48.778;9.160;2023-05-07T09:06:38;98421.63;;;30.66;32.52
141;BME280;65;48.778;9.160;2023-05-07T09:09:27;98412.75;;;33.57;30.75
141;BME280;65;48.778;9.160;2023-05-07T09:12:12;98413.81;;;33.68;30.98
141;BME280;65;48.778;9.160;2023-05-07T09:14:59;98411.97;;;31.27;32.14
141;BME280;65;48.778;9.160;2023-05-07T09:17:44;98413.06;;;31.19;31.39
141;BME280;65;48.778;9.160;2023-05-07T09:20:30;98413.13;;;31.99;30.25
141;BME280;65;48.778;9.160;2023-05-07T09:23:17;98398.19;;;34.32;30.48
141;BME280;65;48.778;9.160;2023-05-07T09:26:03;98401.91;;;33.62;30.86
141;BME280;65;48.778;9.160;2023-05-07T09:28:49;98404.34;;;31.04;35.90
141;BME280;65;48.778;9.160;2023-05-07T09:31:39;98393.41;;;33.75;29.12
141;BME280;65;48.778;9.160;2023-05-07T09:34:24;98391.19;;;30.94;31.79
141;BME280;65;48.778;9.160;2023-05-07T09:37:12;98393.09;;;32.83;32.05
141;BME280;65;48.778;9.160;2023-05-07T09:39:58;98390.19;;;33.78;30.98
141;BME280;65;48.778;9.160;2023-05-07T09:42:43;98382.81;;;36.86;26.19
141;BME280;65;48.778;9.160;2023-05-07T09:45:29;98393.50;;;32.98;27.77
141;BME280;65;48.778;9.160;2023-05-07T09:48:16;98396.00;;;33.00;29.79
141;BME280;65;48.778;9.160;2023-05-07T09:51:09;98395.69;;;32.48;28.84
141;BME280;65;48.778;9.160;2023-05-07T09:53:57;98386.53;;;34.24;31.20
141;BME280;65;48.778;9.160;2023-05-07T09:56:48;98379.56;;;35.58;25.78
141;BME280;65;48.778;9.160;2023-05-07T09:59:34;98386.63;;;37.07;23.77
141;BME280;65;48.778;9.160;2023-05-07T10:02:21;98385.31;;;36.60;28.85
141;BME280;65;48.778;9.160;2023-05-07T10:05:08;98381.94;;;35.49;28.21
141;BME280;65;48.778;9.160;2023-05-07T10:07:54;98391.38;;;34.74;27.92
141;BME280;65;48.778;9.160;2023-05-07T10:10:41;98373.72;;;35.88;27.16
141;BME280;65;48.778;9.160;2023-05-07T10:13:27;98364.78;;;37.00;23.05
141;BME280;65;48.778;9.160;2023-05-07T10:16:13;98357.38;;;33.95;30.29
141;BME280;65;48.778;9.160;2023-05-07T10:18:59;98358.63;;;33.17;27.96
141;BME280;65;48.778;9.160;2023-05-07T10:21:52;98360.19;;;35.47;25.28
141;BME280;65;48.778;9.160;2023-05-07T10:24:39;98353.53;;;35.82;24.35
141;BME280;65;48.778;9.160;2023-05-07T10:27:25;98347.16;;;36.25;25.64
141;BME280;65;48.778;9.160;2023-05-07T10:30:26;98349.63;;;35.39;25.55
141;BME280;65;48.778;9.160;2023-05-07T10:33:17;98348.75;;;35.77;27.83
141;BME280;65;48.778;9.160;2023-05-07T10:36:06;98353.72;;;33.78;26.29
141;BME280;65;48.778;9.160;2023-05-07T10:38:53;98345.94;;;35.72;25.41
141;BME280;65;48.778;9.160;2023-05-07T10:41:39;98350.94;;;36.41;24.06
141;BME280;65;48.778;9.160;2023-05-07T10:44:26;98340.13;;;33.83;30.16
141;BME280;65;48.778;9.160;2023-05-07T10:47:14;98341.31;;;33.75;26.33
141;BME280;65;48.778;9.160;2023-05-07T10:56:25;98339.09;;;31.21;31.76
141;BME280;65;48.778;9.160;2023-05-07T11:02:05;98326.09;;;33.44;27.35
141;BME280;65;48.778;9.160;2023-05-07T11:05:18;98325.72;;;33.29;29.53
141;BME280;65;48.778;9.160;2023-05-07T11:08:05;98325.56;;;31.51;30.01
141;BME280;65;48.778;9.160;2023-05-07T11:10:55;98327.88;;;30.16;35.14
141;BME280;65;48.778;9.160;2023-05-07T11:13:44;98333.34;;;28.32;38.86
141;BME280;65;48.778;9.160;2023-05-07T11:16:33;98323.72;;;26.36;38.89
141;BME280;65;48.778;9.160;2023-05-07T11:22:36;98321.69;;;26.23;40.29
141;BME280;65;48.778;9.160;2023-05-07T11:25:25;98321.28;;;26.41;38.57
141;BME280;65;48.778;9.160;2023-05-07T11:28:11;98322.78;;;26.07;38.35
141;BME280;65;48.778;9.160;2023-05-07T11:30:57;98320.53;;;25.45;40.98
141;BME280;65;48.778;9.160;2023-05-07T11:33:43;98311.94;;;25.57;41.30
141;BME280;65;48.778;9.160;2023-05-07T11:36:32;98309.63;;;25.68;40.30
141;BME280;65;48.778;9.160;2023-05-07T11:39:29;98313.53;;;25.36;44.38
141;BME280;65;48.778;9.160;2023-05-07T11:42:29;98313.72;;;24.82;43.92
141;BME280;65;48.778;9.160;2023-05-07T11:45:23;98304.19;;;24.57;43.10
141;BME280;65;48.778;9.160;2023-05-07T11:48:10;98316.59;;;24.28;45.32
141;BME280;65;48.778;9.160;2023-05-07T11:51:02;98319.34;;;23.89;46.74
141;BME280;65;48.778;9.160;2023-05-07T11:53:48;98318.16;;;23.45;52.91
141;BME280;65;48.778;9.160;2023-05-07T11:56:34;98319.66;;;22.76;58.12
141;BME280;65;48.778;9.160;2023-05-07T11:59:21;98337.69;;;22.51;63.12
141;BME280;65;48.778;9.160;2023-05-07T12:02:07;98352.44;;;21.98;73.65
141;BME280;65;48.778;9.160;2023-05-07T12:04:54;98354.31;;;21.03;84.51
141;BME280;65;48.778;9.160;2023-05-07T12:07:40;98374.47;;;20.10;94.19
141;BME280;65;48.778;9.160;2023-05-07T12:10:25;98372.75;;;19.37;100.00
141;BME280;65;48.778;9.160;2023-05-07T12:13:18;98373.88;;;18.39;100.00
141;BME280;65;48.778;9.160;2023-05-07T12:16:05;98375.22;;;17.76;100.00
141;BME280;65;48.778;9.160;2023-05-07T12:18:52;98370.34;;;17.20;100.00
141;BME280;65;48.778;9.160;2023-05-07T12:21:40;98393.47;;;16.26;100.00
141;BME280;65;48.778;9.160;2023-05-07T12:24:26;98388.13;;;15.83;100.00
141;BME280;65;48.778;9.160;2023-05-07T12:27:13;98397.94;;;15.49;100.00
141;BME280;65;48.778;9.160;2023-05-07T12:29:58;98408.84;;;15.24;100.00
141;BME280;65;48.778;9.160;2023-05-07T12:32:45;98421.31;;;15.23;100.00
141;BME280;65;48.778;9.160;2023-05-07T12:35:35;98423.50;;;15.18;100.00
141;BME280;65;48.778;9.160;2023-05-07T12:38:22;98447.69;;;15.26;100.00
141;BME280;65;48.778;9.160;2023-05-07T12:41:09;98460.28;;;15.35;100.00
141;BME280;65;48.778;9.160;2023-05-07T12:43:56;98470.22;;;15.56;100.00
141;BME280;65;48.778;9.160;2023-05-07T12:46:43;98466.16;;;15.63;100.00
141;BME280;65;48.778;9.160;2023-05-07T12:49:28;98472.66;;;15.59;100.00
141;BME280;65;48.778;9.160;2023-05-07T12:52:14;98470.47;;;15.30;100.00
141;BME280;65;48.778;9.160;2023-05-07T12:55:07;98463.13;;;14.99;100.00
141;BME280;65;48.778;9.160;2023-05-07T12:57:53;98460.56;;;14.86;100.00
141;BME280;65;48.778;9.160;2023-05-07T13:00:39;98451.56;;;14.65;100.00
141;BME280;65;48.778;9.160;2023-05-07T13:03:32;98459.50;;;14.41;100.00
141;BME280;65;48.778;9.160;2023-05-07T13:06:18;98459.44;;;14.30;100.00
141;BME280;65;48.778;9.160;2023-05-07T13:09:04;98458.25;;;14.46;100.00
141;BME280;65;48.778;9.160;2023-05-07T13:11:50;98488.44;;;14.69;100.00
141;BME280;65;48.778;9.160;2023-05-07T13:14:35;98495.63;;;14.80;100.00
141;BME280;65;48.778;9.160;2023-05-07T13:17:21;98506.75;;;14.85;100.00
141;BME280;65;48.778;9.160;2023-05-07T13:20:09;98506.38;;;14.78;100.00
141;BME280;65;48.778;9.160;2023-05-07T13:22:55;98516.00;;;14.68;100.00
141;BME280;65;48.778;9.160;2023-05-07T13:25:40;98513.34;;;14.68;100.00
141;BME280;65;48.778;9.160;2023-05-07T13:28:26;98509.84;;;14.68;100.00
141;BME280;65;48.778;9.160;2023-05-07T13:31:12;98510.06;;;14.65;100.00
141;BME280;65;48.778;9.160;2023-05-07T13:33:57;98504.38;;;14.58;100.00
141;BME280;65;48.778;9.160;2023-05-07T13:36:43;98512.00;;;14.63;100.00
141;BME280;65;48.778;9.160;2023-05-07T13:39:29;98493.09;;;14.54;100.00
141;BME280;65;48.778;9.160;2023-05-07T13:42:14;98489.50;;;14.43;100.00
141;BME280;65;48.778;9.160;2023-05-07T13:45:00;98480.38;;;14.47;100.00
141;BME280;65;48.778;9.160;2023-05-07T13:47:48;98471.81;;;14.54;100.00
141;BME280;65;48.778;9.160;2023-05-07T13:50:34;98466.97;;;14.48;100.00
141;BME280;65;48.778;9.160;2023-05-07T13:53:20;98466.38;;;14.56;100.00
141;BME280;65;48.778;9.160;2023-05-07T13:56:06;98460.97;;;14.58;100.00
141;BME280;65;48.778;9.160;2023-05-07T13:58:52;98443.81;;;14.62;100.00
141;BME280;65;48.778;9.160;2023-05-07T14:01:37;98445.78;;;14.82;100.00
141;BME280;65;48.778;9.160;2023-05-07T14:04:23;98470.88;;;15.02;100.00
141;BME280;65;48.778;9.160;2023-05-07T14:07:09;98483.19;;;14.92;100.00
141;BME280;65;48.778;9.160;2023-05-07T14:09:56;98479.44;;;14.94;100.00
141;BME280;65;48.778;9.160;2023-05-07T14:12:42;98467.47;;;15.00;100.00
141;BME280;65;48.778;9.160;2023-05-07T14:15:27;98471.84;;;15.01;100.00
141;BME280;65;48.778;9.160;2023-05-07T14:18:13;98478.31;;;15.09;100.00
141;BME280;65;48.778;9.160;2023-05-07T14:20:59;98480.59;;;15.14;100.00
141;BME280;65;48.778;9.160;2023-05-07T14:23:45;98485.94;;;15.14;100.00
141;BME280;65;48.778;9.160;2023-05-07T14:26:31;98486.91;;;15.24;100.00
141;BME280;65;48.778;9.160;2023-05-07T14:29:17;98489.09;;;15.19;100.00
141;BME280;65;48.778;9.160;2023-05-07T14:32:04;98487.38;;;15.18;100.00
141;BME280;65;48.778;9.160;2023-05-07T14:34:50;98477.34;;;15.22;100.00
141;BME280;65;48.778;9.160;2023-05-07T14:37:36;98479.91;;;15.23;100.00
141;BME280;65;48.778;9.160;2023-05-07T14:40:21;98472.03;;;15.22;100.00
141;BME280;65;48.778;9.160;2023-05-07T14:43:07;98468.25;;;15.13;100.00
141;BME280;65;48.778;9.160;2023-05-07T14:45:53;98463.06;;;15.11;100.00
141;BME280;65;48.778;9.160;2023-05-07T14:48:39;98457.38;;;15.16;100.00
141;BME280;65;48.778;9.160;2023-05-07T14:51:25;98456.16;;;15.09;100.00
141;BME280;65;48.778;9.160;2023-05-07T14:54:14;98447.69;;;15.15;100.00
141;BME280;65;48.778;9.160;2023-05-07T14:57:01;98446.97;;;15.13;100.00
141;BME280;65;48.778;9.160;2023-05-07T14:59:47;98441.75;;;15.23;100.00
141;BME280;65;48.778;9.160;2023-05-07T15:02:32;98443.94;;;15.17;100.00
141;BME280;65;48.778;9.160;2023-05-07T15:05:19;98445.03;;;15.15;100.00
141;BME280;65;48.778;9.160;2023-05-07T15:08:05;98448.72;;;15.01;100.00
141;BME280;65;48.778;9.160;2023-05-07T15:10:51;98451.56;;;15.22;100.00
141;BME280;65;48.778;9.160;2023-05-07T15:13:37;98448.19;;;15.31;100.00
141;BME280;65;48.778;9.160;2023-05-07T15:16:23;98458.34;;;15.37;100.00
141;BME280;65;48.778;9.160;2023-05-07T15:19:08;98455.72;;;15.60;100.00
141;BME280;65;48.778;9.160;2023-05-07T15:21:56;98462.03;;;15.70;100.00
141;BME280;65;48.778;9.160;2023-05-07T15:24:42;98471.59;;;15.72;100.00
141;BME280;65;48.778;9.160;2023-05-07T15:27:27;98468.84;;;15.63;100.00
141;BME280;65;48.778;9.160;2023-05-07T15:30:14;98475.72;;;15.65;100.00
141;BME280;65;48.778;9.160;2023-05-07T15:33:01;98484.69;;;15.87;100.00
141;BME280;65;48.778;9.160;2023-05-07T15:35:47;98487.19;;;15.99;100.00
141;BME280;65;48.778;9.160;2023-05-07T15:38:32;98485.72;;;16.06;100.00
141;BME280;65;48.778;9.160;2023-05-07T15:41:18;98485.34;;;16.11;100.00
141;BME280;65;48.778;9.160;2023-05-07T15:44:04;98488.38;;;16.29;100.00
141;BME280;65;48.778;9.160;2023-05-07T15:46:50;98483.84;;;16.40;100.00
141;BME280;65;48.778;9.160;2023-05-07T15:49:35;98482.50;;;16.46;100.00